sensor_id;sensor_type;location;lat;lon;timestamp;pressure;altitude;pressure_sealevel;temperature;humidity
57442;BME280;43284;47.042;15.498;2022-11-25T00:01:32;97285.34;;;-0.35;100.00
57442;BME280;43284;47.042;15.498;2022-11-25T00:03:59;97289.66;;;-0.40;100.00
57442;BME280;43284;47.042;15.498;2022-11-25T00:08:59;97285.38;;;-0.38;100.00
57442;BME280;43284;47.042;15.498;2022-11-25T00:11:26;97284.50;;;-0.36;100.00
57442;BME280;43284;47.042;15.498;2022-11-25T00:13:52;97281.94;;;-0.37;100.00
57442;BME280;43284;47.042;15.498;2022-11-25T00:16:20;97280.22;;;-0.34;100.00
57442;BME280;43284;47.042;15.498;2022-11-25T00:18:48;97277.69;;;-0.42;100.00
57442;BME280;43284;47.042;15.498;2022-11-25T00:21:16;97284.53;;;-0.47;100.00
57442;BME280;43284;47.042;15.498;2022-11-25T00:23:42;97286.28;;;-0.53;100.00
57442;BME280;43284;47.042;15.498;2022-11-25T00:26:14;97282.84;;;-0.51;100.00
57442;BME280;43284;47.042;15.498;2022-11-25T00:28:42;97287.13;;;-0.50;100.00
57442;BME280;43284;47.042;15.498;2022-11-25T00:31:32;97287.97;;;-0.51;100.00
57442;BME280;43284;47.042;15.498;2022-11-25T00:33:58;97292.25;;;-0.53;100.00
57442;BME280;43284;47.042;15.498;2022-11-25T00:36:29;97289.72;;;-0.54;100.00
57442;BME280;43284;47.042;15.498;2022-11-25T00:39:01;97295.72;;;-0.58;100.00
57442;BME280;43284;47.042;15.498;2022-11-25T00:41:28;97292.28;;;-0.57;100.00
57442;BME280;43284;47.042;15.498;2022-11-25T00:44:17;97296.56;;;-0.56;100.00
57442;BME280;43284;47.042;15.498;2022-11-25T00:47:04;97305.16;;;-0.74;100.00
57442;BME280;43284;47.042;15.498;2022-11-25T00:49:31;97304.28;;;-0.70;100.00
57442;BME280;43284;47.042;15.498;2022-11-25T00:51:57;97309.44;;;-0.72;100.00
57442;BME280;43284;47.042;15.498;2022-11-25T00:54:22;97306.00;;;-0.77;100.00
57442;BME280;43284;47.042;15.498;2022-11-25T00:56:48;97312.00;;;-0.78;100.00
57442;BME280;43284;47.042;15.498;2022-11-25T00:59:14;97303.44;;;-0.77;100.00
57442;BME280;43284;47.042;15.498;2022-11-25T01:01:39;97295.72;;;-0.77;100.00
57442;BME280;43284;47.042;15.498;2022-11-25T01:04:06;97296.59;;;-0.73;100.00
57442;BME280;43284;47.042;15.498;2022-11-25T01:06:32;97303.44;;;-0.88;100.00
57442;BME280;43284;47.042;15.498;2022-11-25T01:08:58;97293.19;;;-0.85;100.00
57442;BME280;43284;47.042;15.498;2022-11-25T01:11:23;97293.19;;;-0.81;100.00
57442;BME280;43284;47.042;15.498;2022-11-25T01:13:49;97294.03;;;-0.79;100.00
57442;BME280;43284;47.042;15.498;2022-11-25T01:16:17;97284.63;;;-0.82;100.00
57442;BME280;43284;47.042;15.498;2022-11-25T01:18:43;97280.34;;;-0.80;100.00
57442;BME280;43284;47.042;15.498;2022-11-25T01:21:16;97281.22;;;-0.82;100.00
57442;BME280;43284;47.042;15.498;2022-11-25T01:23:43;97280.38;;;-0.83;100.00
57442;BME280;43284;47.042;15.498;2022-11-25T01:26:11;97273.50;;;-0.86;100.00
57442;BME280;43284;47.042;15.498;2022-11-25T01:28:37;97286.34;;;-0.87;100.00
57442;BME280;43284;47.042;15.498;2022-11-25T01:31:07;97289.78;;;-0.91;100.00
57442;BME280;43284;47.042;15.498;2022-11-25T01:33:35;97294.91;;;-0.93;100.00
57442;BME280;43284;47.042;15.498;2022-11-25T01:36:15;97290.63;;;-0.92;100.00
57442;BME280;43284;47.042;15.498;2022-11-25T01:38:42;97301.75;;;-0.95;100.00
57442;BME280;43284;47.042;15.498;2022-11-25T01:41:10;97306.88;;;-1.06;100.00
57442;BME280;43284;47.042;15.498;2022-11-25T01:43:36;97306.03;;;-1.11;100.00
57442;BME280;43284;47.042;15.498;2022-11-25T01:48:42;97309.47;;;-1.04;100.00
57442;BME280;43284;47.042;15.498;2022-11-25T01:51:25;97316.28;;;-1.03;100.00
57442;BME280;43284;47.042;15.498;2022-11-25T01:53:53;97318.00;;;-1.02;100.00
57442;BME280;43284;47.042;15.498;2022-11-25T01:56:20;97319.72;;;-1.04;100.00
57442;BME280;43284;47.042;15.498;2022-11-25T01:58:46;97320.56;;;-0.97;100.00
57442;BME280;43284;47.042;15.498;2022-11-25T02:01:14;97328.25;;;-0.97;100.00
57442;BME280;43284;47.042;15.498;2022-11-25T02:03:43;97331.69;;;-0.95;100.00
57442;BME280;43284;47.042;15.498;2022-11-25T02:06:16;97331.69;;;-0.95;100.00
57442;BME280;43284;47.042;15.498;2022-11-25T02:08:47;97327.44;;;-1.02;100.00
57442;BME280;43284;47.042;15.498;2022-11-25T02:11:13;97334.25;;;-1.05;100.00
57442;BME280;43284;47.042;15.498;2022-11-25T02:13:40;97339.38;;;-1.08;100.00
57442;BME280;43284;47.042;15.498;2022-11-25T02:16:06;97344.53;;;-1.09;100.00
57442;BME280;43284;47.042;15.498;2022-11-25T02:18:32;97334.25;;;-1.06;100.00
57442;BME280;43284;47.042;15.498;2022-11-25T02:20:57;97339.38;;;-1.11;100.00
57442;BME280;43284;47.042;15.498;2022-11-25T02:23:43;97343.66;;;-1.13;100.00
57442;BME280;43284;47.042;15.498;2022-11-25T02:26:12;97345.34;;;-1.16;100.00
57442;BME280;43284;47.042;15.498;2022-11-25T02:28:37;97356.47;;;-1.20;100.00
57442;BME280;43284;47.042;15.498;2022-11-25T02:31:06;97347.06;;;-1.17;100.00
57442;BME280;43284;47.042;15.498;2022-11-25T02:33:31;97350.47;;;-1.16;100.00
57442;BME280;43284;47.042;15.498;2022-11-25T02:35:58;97347.06;;;-1.17;100.00
57442;BME280;43284;47.042;15.498;2022-11-25T02:38:47;97344.50;;;-1.20;100.00
57442;BME280;43284;47.042;15.498;2022-11-25T02:41:20;97346.22;;;-1.16;100.00
57442;BME280;43284;47.042;15.498;2022-11-25T02:43:47;97347.94;;;-1.19;100.00
57442;BME280;43284;47.042;15.498;2022-11-25T02:46:14;97354.75;;;-1.21;100.00
57442;BME280;43284;47.042;15.498;2022-11-25T02:48:41;97357.31;;;-1.29;100.00
57442;BME280;43284;47.042;15.498;2022-11-25T02:51:09;97367.56;;;-1.32;100.00
57442;BME280;43284;47.042;15.498;2022-11-25T02:53:36;97356.44;;;-1.39;100.00
57442;BME280;43284;47.042;15.498;2022-11-25T02:56:02;97359.84;;;-1.38;100.00
57442;BME280;43284;47.042;15.498;2022-11-25T02:58:27;97359.88;;;-1.37;100.00
57442;BME280;43284;47.042;15.498;2022-11-25T03:00:53;97353.91;;;-1.31;100.00
57442;BME280;43284;47.042;15.498;2022-11-25T03:03:18;97360.75;;;-1.30;100.00
57442;BME280;43284;47.042;15.498;2022-11-25T03:05:44;97353.91;;;-1.30;100.00
57442;BME280;43284;47.042;15.498;2022-11-25T03:08:12;97359.03;;;-1.30;100.00
57442;BME280;43284;47.042;15.498;2022-11-25T03:10:39;97365.00;;;-1.34;100.00
57442;BME280;43284;47.042;15.498;2022-11-25T03:13:06;97368.41;;;-1.39;100.00
57442;BME280;43284;47.042;15.498;2022-11-25T03:15:32;97361.59;;;-1.42;100.00
57442;BME280;43284;47.042;15.498;2022-11-25T03:17:58;97370.13;;;-1.46;100.00
57442;BME280;43284;47.042;15.498;2022-11-25T03:20:23;97371.81;;;-1.47;100.00
57442;BME280;43284;47.042;15.498;2022-11-25T03:22:49;97379.50;;;-1.45;100.00
57442;BME280;43284;47.042;15.498;2022-11-25T03:25:15;97385.50;;;-1.43;100.00
57442;BME280;43284;47.042;15.498;2022-11-25T03:27:41;97382.94;;;-1.34;100.00
57442;BME280;43284;47.042;15.498;2022-11-25T03:30:10;97382.09;;;-1.42;100.00
57442;BME280;43284;47.042;15.498;2022-11-25T03:32:37;97377.81;;;-1.40;100.00
57442;BME280;43284;47.042;15.498;2022-11-25T03:35:03;97376.09;;;-1.44;100.00
57442;BME280;43284;47.042;15.498;2022-11-25T03:37:29;97368.41;;;-1.50;100.00
57442;BME280;43284;47.042;15.498;2022-11-25T03:39:54;97377.78;;;-1.48;100.00
57442;BME280;43284;47.042;15.498;2022-11-25T03:42:20;97373.53;;;-1.50;100.00
57442;BME280;43284;47.042;15.498;2022-11-25T03:44:45;97373.50;;;-1.47;100.00
57442;BME280;43284;47.042;15.498;2022-11-25T03:47:11;97384.63;;;-1.47;100.00
57442;BME280;43284;47.042;15.498;2022-11-25T03:49:36;97394.00;;;-1.59;100.00
57442;BME280;43284;47.042;15.498;2022-11-25T03:52:02;97384.59;;;-1.59;100.00
57442;BME280;43284;47.042;15.498;2022-11-25T03:54:28;97391.41;;;-1.62;100.00
57442;BME280;43284;47.042;15.498;2022-11-25T03:56:53;97388.00;;;-1.63;100.00
57442;BME280;43284;47.042;15.498;2022-11-25T03:59:19;97399.97;;;-1.62;100.00
57442;BME280;43284;47.042;15.498;2022-11-25T04:01:47;97400.84;;;-1.61;100.00
57442;BME280;43284;47.042;15.498;2022-11-25T04:04:13;97399.13;;;-1.61;100.00
57442;BME280;43284;47.042;15.498;2022-11-25T04:06:39;97397.41;;;-1.60;100.00
57442;BME280;43284;47.042;15.498;2022-11-25T04:09:05;97388.88;;;-1.59;100.00
57442;BME280;43284;47.042;15.498;2022-11-25T04:11:31;97393.13;;;-1.55;100.00
57442;BME280;43284;47.042;15.498;2022-11-25T04:14:15;97391.44;;;-1.56;100.00
57442;BME280;43284;47.042;15.498;2022-11-25T04:16:40;97388.03;;;-1.58;100.00
57442;BME280;43284;47.042;15.498;2022-11-25T04:19:06;97387.16;;;-1.60;100.00
57442;BME280;43284;47.042;15.498;2022-11-25T04:21:31;97382.91;;;-1.61;100.00
57442;BME280;43284;47.042;15.498;2022-11-25T04:23:57;97385.44;;;-1.60;100.00
57442;BME280;43284;47.042;15.498;2022-11-25T04:26:23;97384.56;;;-1.62;100.00
57442;BME280;43284;47.042;15.498;2022-11-25T04:28:48;97388.88;;;-1.56;100.00
57442;BME280;43284;47.042;15.498;2022-11-25T04:31:14;97385.44;;;-1.55;100.00
57442;BME280;43284;47.042;15.498;2022-11-25T04:33:39;97388.03;;;-1.58;100.00
57442;BME280;43284;47.042;15.498;2022-11-25T04:36:05;97382.88;;;-1.63;100.00
57442;BME280;43284;47.042;15.498;2022-11-25T04:38:31;97382.88;;;-1.66;100.00
57442;BME280;43284;47.042;15.498;2022-11-25T04:40:57;97376.00;;;-1.69;100.00
57442;BME280;43284;47.042;15.498;2022-11-25T04:43:22;97377.75;;;-1.63;100.00
57442;BME280;43284;47.042;15.498;2022-11-25T04:45:48;97373.47;;;-1.69;100.00
57442;BME280;43284;47.042;15.498;2022-11-25T04:48:14;97374.31;;;-1.70;100.00
57442;BME280;43284;47.042;15.498;2022-11-25T04:50:40;97373.44;;;-1.73;100.00
57442;BME280;43284;47.042;15.498;2022-11-25T04:53:05;97372.59;;;-1.81;100.00
57442;BME280;43284;47.042;15.498;2022-11-25T04:55:31;97370.03;;;-1.78;100.00
57442;BME280;43284;47.042;15.498;2022-11-25T04:57:56;97376.84;;;-1.80;100.00
57442;BME280;43284;47.042;15.498;2022-11-25T05:00:22;97377.66;;;-1.89;100.00
57442;BME280;43284;47.042;15.498;2022-11-25T05:02:49;97381.91;;;-1.88;100.00
57442;BME280;43284;47.042;15.498;2022-11-25T05:05:17;97382.81;;;-1.88;100.00
57442;BME280;43284;47.042;15.498;2022-11-25T05:07:43;97374.25;;;-1.90;100.00
57442;BME280;43284;47.042;15.498;2022-11-25T05:10:08;97375.09;;;-1.92;100.00
57442;BME280;43284;47.042;15.498;2022-11-25T05:12:34;97374.22;;;-1.97;100.00
57442;BME280;43284;47.042;15.498;2022-11-25T05:15:00;97376.78;;;-1.99;100.00
57442;BME280;43284;47.042;15.498;2022-11-25T05:17:27;97377.59;;;-2.01;100.00
57442;BME280;43284;47.042;15.498;2022-11-25T05:19:54;97381.91;;;-1.99;100.00
57442;BME280;43284;47.042;15.498;2022-11-25T05:22:23;97376.75;;;-2.02;100.00
57442;BME280;43284;47.042;15.498;2022-11-25T05:24:48;97379.31;;;-2.05;100.00
57442;BME280;43284;47.042;15.498;2022-11-25T05:27:15;97393.81;;;-2.04;100.00
57442;BME280;43284;47.042;15.498;2022-11-25T05:29:41;97392.09;;;-2.03;100.00
57442;BME280;43284;47.042;15.498;2022-11-25T05:32:07;97393.78;;;-2.13;100.00
57442;BME280;43284;47.042;15.498;2022-11-25T05:34:33;97401.47;;;-2.10;100.00
57442;BME280;43284;47.042;15.498;2022-11-25T05:36:58;97410.91;;;-2.08;100.00
57442;BME280;43284;47.042;15.498;2022-11-25T05:39:24;97405.78;;;-2.08;100.00
57442;BME280;43284;47.042;15.498;2022-11-25T05:41:49;97410.84;;;-2.11;100.00
57442;BME280;43284;47.042;15.498;2022-11-25T05:44:15;97412.59;;;-2.10;100.00
57442;BME280;43284;47.042;15.498;2022-11-25T05:46:43;97415.97;;;-2.11;100.00
57442;BME280;43284;47.042;15.498;2022-11-25T05:49:10;97419.41;;;-2.09;100.00
57442;BME280;43284;47.042;15.498;2022-11-25T05:51:36;97426.25;;;-2.06;100.00
57442;BME280;43284;47.042;15.498;2022-11-25T05:54:04;97430.53;;;-2.02;100.00
57442;BME280;43284;47.042;15.498;2022-11-25T05:56:30;97433.06;;;-2.07;100.00
57442;BME280;43284;47.042;15.498;2022-11-25T05:58:57;97451.00;;;-2.08;100.00
57442;BME280;43284;47.042;15.498;2022-11-25T06:01:23;97451.88;;;-2.08;100.00
57442;BME280;43284;47.042;15.498;2022-11-25T06:03:59;97461.19;;;-2.16;100.00
57442;BME280;43284;47.042;15.498;2022-11-25T06:06:38;97461.19;;;-2.16;100.00
57442;BME280;43284;47.042;15.498;2022-11-25T06:10:03;97470.59;;;-2.13;100.00
57442;BME280;43284;47.042;15.498;2022-11-25T06:12:31;97471.44;;;-2.13;100.00
57442;BME280;43284;47.042;15.498;2022-11-25T06:15:00;97475.72;;;-2.10;100.00
57442;BME280;43284;47.042;15.498;2022-11-25T06:17:47;97478.34;;;-2.05;100.00
57442;BME280;43284;47.042;15.498;2022-11-25T06:20:19;97474.91;;;-2.06;100.00
57442;BME280;43284;47.042;15.498;2022-11-25T06:22:44;97467.25;;;-2.04;100.00
57442;BME280;43284;47.042;15.498;2022-11-25T06:25:11;97471.56;;;-1.99;100.00
57442;BME280;43284;47.042;15.498;2022-11-25T06:27:36;97460.44;;;-1.98;100.00
57442;BME280;43284;47.042;15.498;2022-11-25T06:30:02;97466.44;;;-1.96;100.00
57442;BME280;43284;47.042;15.498;2022-11-25T06:32:28;97465.63;;;-1.92;100.00
57442;BME280;43284;47.042;15.498;2022-11-25T06:34:54;97459.63;;;-1.94;100.00
57442;BME280;43284;47.042;15.498;2022-11-25T06:37:19;97468.19;;;-1.92;100.00
57442;BME280;43284;47.042;15.498;2022-11-25T06:39:45;97460.50;;;-1.90;100.00
57442;BME280;43284;47.042;15.498;2022-11-25T06:42:10;97466.50;;;-1.85;100.00
57442;BME280;43284;47.042;15.498;2022-11-25T06:44:36;97464.81;;;-1.83;100.00
57442;BME280;43284;47.042;15.498;2022-11-25T06:47:01;97462.25;;;-1.80;100.00
57442;BME280;43284;47.042;15.498;2022-11-25T06:49:27;97473.34;;;-1.82;100.00
57442;BME280;43284;47.042;15.498;2022-11-25T06:51:53;97468.25;;;-1.76;100.00
57442;BME280;43284;47.042;15.498;2022-11-25T06:54:19;97475.06;;;-1.80;100.00
57442;BME280;43284;47.042;15.498;2022-11-25T06:56:44;97475.91;;;-1.81;100.00
57442;BME280;43284;47.042;15.498;2022-11-25T06:59:16;97472.50;;;-1.75;100.00
57442;BME280;43284;47.042;15.498;2022-11-25T07:01:43;97473.41;;;-1.75;100.00
57442;BME280;43284;47.042;15.498;2022-11-25T07:04:09;97475.97;;;-1.75;100.00
57442;BME280;43284;47.042;15.498;2022-11-25T07:06:34;97475.97;;;-1.70;100.00
57442;BME280;43284;47.042;15.498;2022-11-25T07:09:00;97486.25;;;-1.64;100.00
57442;BME280;43284;47.042;15.498;2022-11-25T07:11:28;97495.66;;;-1.61;100.00
57442;BME280;43284;47.042;15.498;2022-11-25T07:13:57;97499.09;;;-1.53;100.00
57442;BME280;43284;47.042;15.498;2022-11-25T07:16:23;97497.41;;;-1.54;100.00
57442;BME280;43284;47.042;15.498;2022-11-25T07:18:49;97501.69;;;-1.55;100.00
57442;BME280;43284;47.042;15.498;2022-11-25T07:21:17;97505.97;;;-1.51;100.00
57442;BME280;43284;47.042;15.498;2022-11-25T07:23:44;97516.22;;;-1.45;100.00
57442;BME280;43284;47.042;15.498;2022-11-25T07:26:15;97511.16;;;-1.40;100.00
57442;BME280;43284;47.042;15.498;2022-11-25T07:28:41;97517.16;;;-1.33;100.00
57442;BME280;43284;47.042;15.498;2022-11-25T07:31:18;97510.31;;;-1.30;100.00
57442;BME280;43284;47.042;15.498;2022-11-25T07:33:46;97508.66;;;-1.25;100.00
57442;BME280;43284;47.042;15.498;2022-11-25T07:36:13;97514.63;;;-1.16;100.00
57442;BME280;43284;47.042;15.498;2022-11-25T07:38:39;97508.69;;;-1.09;100.00
57442;BME280;43284;47.042;15.498;2022-11-25T07:41:11;97505.28;;;-1.02;100.00
57442;BME280;43284;47.042;15.498;2022-11-25T07:43:37;97508.72;;;-0.92;100.00
57442;BME280;43284;47.042;15.498;2022-11-25T07:46:41;97508.75;;;-0.83;100.00
57442;BME280;43284;47.042;15.498;2022-11-25T07:49:05;97504.47;;;-0.70;100.00
57442;BME280;43284;47.042;15.498;2022-11-25T07:53:59;97508.78;;;-0.49;100.00
57442;BME280;43284;47.042;15.498;2022-11-25T07:56:27;97504.50;;;-0.33;100.00
57442;BME280;43284;47.042;15.498;2022-11-25T07:58:54;97501.13;;;-0.26;100.00
57442;BME280;43284;47.042;15.498;2022-11-25T08:01:19;97501.97;;;-0.19;100.00
57442;BME280;43284;47.042;15.498;2022-11-25T08:03:46;97503.66;;;-0.11;100.00
57442;BME280;43284;47.042;15.498;2022-11-25T08:06:15;97504.50;;;0.01;100.00
57442;BME280;43284;47.042;15.498;2022-11-25T08:08:41;97506.22;;;0.09;100.00
57442;BME280;43284;47.042;15.498;2022-11-25T08:11:20;97513.91;;;0.18;100.00
57442;BME280;43284;47.042;15.498;2022-11-25T08:13:47;97511.28;;;0.26;100.00
57442;BME280;43284;47.042;15.498;2022-11-25T08:16:14;97513.84;;;0.38;100.00
57442;BME280;43284;47.042;15.498;2022-11-25T08:18:40;97519.81;;;0.53;100.00
57442;BME280;43284;47.042;15.498;2022-11-25T08:21:07;97512.06;;;0.60;100.00
57442;BME280;43284;47.042;15.498;2022-11-25T08:23:35;97511.19;;;0.69;100.00
57442;BME280;43284;47.042;15.498;2022-11-25T08:26:13;97511.16;;;0.77;100.00
57442;BME280;43284;47.042;15.498;2022-11-25T08:28:40;97510.28;;;0.84;100.00
57442;BME280;43284;47.042;15.498;2022-11-25T08:31:09;97511.94;;;0.93;100.00
57442;BME280;43284;47.042;15.498;2022-11-25T08:33:36;97516.16;;;1.05;100.00
57442;BME280;43284;47.042;15.498;2022-11-25T08:36:02;97520.41;;;1.16;100.00
57442;BME280;43284;47.042;15.498;2022-11-25T08:38:28;97524.63;;;1.27;100.00
57442;BME280;43284;47.042;15.498;2022-11-25T08:40:56;97526.25;;;1.41;100.00
57442;BME280;43284;47.042;15.498;2022-11-25T08:43:22;97524.50;;;1.51;100.00
57442;BME280;43284;47.042;15.498;2022-11-25T08:45:48;97522.69;;;1.64;100.00
57442;BME280;43284;47.042;15.498;2022-11-25T08:48:16;97509.72;;;1.70;100.00
57442;BME280;43284;47.042;15.498;2022-11-25T08:50:48;97513.91;;;1.85;100.00
57442;BME280;43284;47.042;15.498;2022-11-25T08:53:14;97508.75;;;1.85;100.00
57442;BME280;43284;47.042;15.498;2022-11-25T08:55:41;97515.59;;;1.89;100.00
57442;BME280;43284;47.042;15.498;2022-11-25T08:58:07;97518.13;;;1.92;100.00
57442;BME280;43284;47.042;15.498;2022-11-25T09:00:40;97512.09;;;1.96;100.00
57442;BME280;43284;47.042;15.498;2022-11-25T09:03:06;97518.09;;;2.01;100.00
57442;BME280;43284;47.042;15.498;2022-11-25T09:05:33;97512.84;;;2.09;99.92
57442;BME280;43284;47.042;15.498;2022-11-25T09:08:02;97510.22;;;2.14;99.80
57442;BME280;43284;47.042;15.498;2022-11-25T09:10:28;97504.09;;;2.24;99.01
57442;BME280;43284;47.042;15.498;2022-11-25T09:12:54;97505.69;;;2.39;99.68
57442;BME280;43284;47.042;15.498;2022-11-25T09:15:19;97508.94;;;2.56;99.40
57442;BME280;43284;47.042;15.498;2022-11-25T09:17:45;97508.81;;;2.65;98.97
57442;BME280;43284;47.042;15.498;2022-11-25T09:20:11;97497.53;;;2.74;98.32
57442;BME280;43284;47.042;15.498;2022-11-25T09:22:36;97499.03;;;2.92;97.95
57442;BME280;43284;47.042;15.498;2022-11-25T09:25:02;97499.66;;;3.09;96.00
57442;BME280;43284;47.042;15.498;2022-11-25T09:27:29;97497.88;;;3.15;95.00
57442;BME280;43284;47.042;15.498;2022-11-25T09:29:55;97500.22;;;3.32;95.77
57442;BME280;43284;47.042;15.498;2022-11-25T09:32:20;97495.72;;;3.46;94.61
57442;BME280;43284;47.042;15.498;2022-11-25T09:34:46;97493.75;;;3.62;93.64
57442;BME280;43284;47.042;15.498;2022-11-25T09:37:12;97491.03;;;3.69;93.67
57442;BME280;43284;47.042;15.498;2022-11-25T09:39:37;97487.44;;;3.78;93.83
57442;BME280;43284;47.042;15.498;2022-11-25T09:42:47;97486.56;;;3.79;93.02
57442;BME280;43284;47.042;15.498;2022-11-25T09:45:46;97492.25;;;4.01;93.65
57442;BME280;43284;47.042;15.498;2022-11-25T09:51:20;97475.22;;;4.36;89.65
57442;BME280;43284;47.042;15.498;2022-11-25T09:56:38;97463.66;;;4.56;90.00
57442;BME280;43284;47.042;15.498;2022-11-25T09:59:11;97465.34;;;4.57;88.02
57442;BME280;43284;47.042;15.498;2022-11-25T10:01:47;97459.22;;;4.61;88.31
57442;BME280;43284;47.042;15.498;2022-11-25T10:04:31;97456.50;;;4.67;87.86
57442;BME280;43284;47.042;15.498;2022-11-25T10:07:01;97453.81;;;4.73;86.81
57442;BME280;43284;47.042;15.498;2022-11-25T10:09:30;97451.19;;;4.74;86.38
57442;BME280;43284;47.042;15.498;2022-11-25T10:12:12;97451.91;;;4.81;86.42
57442;BME280;43284;47.042;15.498;2022-11-25T10:14:47;97446.44;;;4.93;86.37
57442;BME280;43284;47.042;15.498;2022-11-25T10:22:49;97438.06;;;5.23;84.22
57442;BME280;43284;47.042;15.498;2022-11-25T10:25:24;97432.69;;;5.29;83.27
57442;BME280;43284;47.042;15.498;2022-11-25T10:30:53;97416.50;;;5.56;83.00
57442;BME280;43284;47.042;15.498;2022-11-25T10:33:35;97418.03;;;5.64;82.42
57442;BME280;43284;47.042;15.498;2022-11-25T10:36:17;97405.84;;;5.69;81.38
57442;BME280;43284;47.042;15.498;2022-11-25T10:39:04;97399.28;;;5.88;81.48
57442;BME280;43284;47.042;15.498;2022-11-25T10:41:36;97399.88;;;6.00;80.80
57442;BME280;43284;47.042;15.498;2022-11-25T10:44:23;97398.72;;;6.10;79.77
57442;BME280;43284;47.042;15.498;2022-11-25T10:49:40;97404.19;;;6.32;79.46
57442;BME280;43284;47.042;15.498;2022-11-25T10:52:12;97398.09;;;6.34;78.69
57442;BME280;43284;47.042;15.498;2022-11-25T10:54:38;97402.28;;;6.38;78.54
57442;BME280;43284;47.042;15.498;2022-11-25T10:57:17;97402.66;;;6.56;77.61
57442;BME280;43284;47.042;15.498;2022-11-25T10:59:54;97401.59;;;6.63;76.76
57442;BME280;43284;47.042;15.498;2022-11-25T11:02:24;97392.81;;;6.67;75.89
57442;BME280;43284;47.042;15.498;2022-11-25T11:07:36;97391.38;;;6.87;76.85
57442;BME280;43284;47.042;15.498;2022-11-25T11:10:25;97399.91;;;6.90;76.57
57442;BME280;43284;47.042;15.498;2022-11-25T11:15:27;97387.59;;;6.97;77.20
57442;BME280;43284;47.042;15.498;2022-11-25T11:17:54;97390.66;;;7.10;77.16
57442;BME280;43284;47.042;15.498;2022-11-25T11:20:30;97384.63;;;7.09;75.28
57442;BME280;43284;47.042;15.498;2022-11-25T11:23:11;97387.91;;;7.14;74.89
57442;BME280;43284;47.042;15.498;2022-11-25T11:25:40;97381.72;;;7.18;73.91
57442;BME280;43284;47.042;15.498;2022-11-25T11:39:04;97383.06;;;7.30;72.65
57442;BME280;43284;47.042;15.498;2022-11-25T11:47:28;97374.94;;;7.41;71.39
57442;BME280;43284;47.042;15.498;2022-11-25T11:50:02;97383.16;;;7.55;72.39
57442;BME280;43284;47.042;15.498;2022-11-25T11:56:15;97372.63;;;7.58;71.10
57442;BME280;43284;47.042;15.498;2022-11-25T11:58:30;97372.19;;;7.72;70.02
57442;BME280;43284;47.042;15.498;2022-11-25T12:03:46;97372.75;;;7.80;70.97
57442;BME280;43284;47.042;15.498;2022-11-25T12:06:14;97369.91;;;7.88;68.92
57442;BME280;43284;47.042;15.498;2022-11-25T12:08:48;97373.47;;;7.86;70.16
57442;BME280;43284;47.042;15.498;2022-11-25T12:11:20;97368.34;;;7.82;69.22
57442;BME280;43284;47.042;15.498;2022-11-25T12:14:10;97367.72;;;8.01;69.37
57442;BME280;43284;47.042;15.498;2022-11-25T12:16:49;97371.28;;;7.98;68.64
57442;BME280;43284;47.042;15.498;2022-11-25T12:19:35;97371.16;;;8.01;69.37
57442;BME280;43284;47.042;15.498;2022-11-25T12:22:08;97363.34;;;8.01;69.09
57442;BME280;43284;47.042;15.498;2022-11-25T12:25:03;97367.59;;;8.04;69.22
57442;BME280;43284;47.042;15.498;2022-11-25T12:27:35;97365.03;;;8.28;68.68
57442;BME280;43284;47.042;15.498;2022-11-25T12:30:06;97360.59;;;8.31;67.84
57442;BME280;43284;47.042;15.498;2022-11-25T12:38:27;97350.03;;;8.59;64.24
57442;BME280;43284;47.042;15.498;2022-11-25T12:44:22;97357.22;;;8.53;66.25
57442;BME280;43284;47.042;15.498;2022-11-25T12:46:52;97364.25;;;8.51;66.84
57442;BME280;43284;47.042;15.498;2022-11-25T12:49:30;97358.72;;;8.58;66.74
57442;BME280;43284;47.042;15.498;2022-11-25T12:55:12;97357.97;;;8.78;65.62
57442;BME280;43284;47.042;15.498;2022-11-25T13:08:22;97343.66;;;9.96;61.16
57442;BME280;43284;47.042;15.498;2022-11-25T13:16:16;97349.78;;;10.36;59.69
57442;BME280;43284;47.042;15.498;2022-11-25T13:18:45;97347.41;;;10.50;60.15
57442;BME280;43284;47.042;15.498;2022-11-25T13:21:13;97343.88;;;10.70;58.77
57442;BME280;43284;47.042;15.498;2022-11-25T13:26:46;97344.94;;;10.85;58.08
57442;BME280;43284;47.042;15.498;2022-11-25T13:31:58;97345.19;;;10.60;58.63
57442;BME280;43284;47.042;15.498;2022-11-25T13:34:33;97354.31;;;10.70;57.96
57442;BME280;43284;47.042;15.498;2022-11-25T13:37:00;97351.47;;;10.56;58.33
57442;BME280;43284;47.042;15.498;2022-11-25T13:39:33;97346.59;;;10.29;59.88
57442;BME280;43284;47.042;15.498;2022-11-25T13:42:25;97352.88;;;9.84;60.26
57442;BME280;43284;47.042;15.498;2022-11-25T13:44:54;97358.47;;;9.75;60.85
57442;BME280;43284;47.042;15.498;2022-11-25T13:47:31;97357.63;;;9.54;61.56
57442;BME280;43284;47.042;15.498;2022-11-25T13:50:17;97355.69;;;9.37;63.21
57442;BME280;43284;47.042;15.498;2022-11-25T13:53:05;97366.25;;;9.12;62.76
57442;BME280;43284;47.042;15.498;2022-11-25T13:55:40;97362.69;;;8.92;63.10
57442;BME280;43284;47.042;15.498;2022-11-25T14:03:44;97370.44;;;8.70;66.06
57442;BME280;43284;47.042;15.498;2022-11-25T14:11:54;97375.47;;;8.53;68.60
57442;BME280;43284;47.042;15.498;2022-11-25T14:14:51;97369.56;;;8.48;69.42
57442;BME280;43284;47.042;15.498;2022-11-25T14:17:32;97362.69;;;8.45;69.49
57442;BME280;43284;47.042;15.498;2022-11-25T14:23:14;97365.63;;;8.36;69.90
57442;BME280;43284;47.042;15.498;2022-11-25T14:25:52;97370.25;;;8.28;69.65
57442;BME280;43284;47.042;15.498;2022-11-25T14:31:18;97360.16;;;7.93;70.41
57442;BME280;43284;47.042;15.498;2022-11-25T14:33:47;97361.63;;;7.77;70.26
57442;BME280;43284;47.042;15.498;2022-11-25T14:36:40;97367.41;;;7.58;71.31
57442;BME280;43284;47.042;15.498;2022-11-25T14:39:32;97377.50;;;7.42;72.75
57442;BME280;43284;47.042;15.498;2022-11-25T14:42:13;97379.81;;;7.23;74.47
57442;BME280;43284;47.042;15.498;2022-11-25T14:44:49;97375.22;;;7.05;75.51
57442;BME280;43284;47.042;15.498;2022-11-25T14:47:20;97373.88;;;6.92;75.79